Time,TemperatureF,DewpointF,PressureIn,WindDirection,WindDirectionDegrees,WindSpeedMPH,WindSpeedGustMPH,Humidity,HourlyPrecipIn,Conditions,Clouds,dailyrainin,SoftwareType,DateUTC
2013-07-10 00:00:00,77.4,75.2,30.01,South,181,0.0,1.0,93,0.00,,---,0.00,VWS V14.01,2013-07-10 04:00:00,
2013-07-10 00:01:00,77.4,75.2,30.01,South,181,0.0,0.0,93,0.00,,---,0.00,VWS V14.01,2013-07-10 04:01:00,
2013-07-10 00:06:00,77.7,75.2,30.01,South,181,0.0,1.0,92,0.00,,---,0.00,VWS V14.01,2013-07-10 04:06:00,
2013-07-10 00:11:00,77.8,75.3,30.01,South,181,0.0,1.0,92,0.00,,---,0.00,VWS V14.01,2013-07-10 04:11:00,
2013-07-10 00:16:00,77.8,75.3,30.00,South,181,0.0,2.0,92,0.00,,---,0.00,VWS V14.01,2013-07-10 04:16:00,
2013-07-10 00:21:00,77.8,75.0,30.00,South,181,0.0,2.0,91,0.00,,---,0.00,VWS V14.01,2013-07-10 04:21:00,
2013-07-10 00:26:00,77.7,75.2,30.00,South,181,0.0,2.0,92,0.00,,---,0.00,VWS V14.01,2013-07-10 04:26:00,
2013-07-10 00:30:00,77.5,75.0,30.00,South,181,0.0,2.0,92,0.00,,---,0.00,VWS V14.01,2013-07-10 04:30:00,
2013-07-10 00:31:00,77.5,75.0,30.00,South,181,0.0,0.0,92,0.00,,---,0.00,VWS V14.01,2013-07-10 04:31:00,
2013-07-10 00:36:00,77.3,74.8,29.99,South,181,0.0,0.0,92,0.00,,---,0.00,VWS V14.01,2013-07-10 04:36:00,
2013-07-10 00:41:00,77.1,74.6,29.99,South,181,0.0,1.0,92,0.00,,---,0.00,VWS V14.01,2013-07-10 04:41:00,
2013-07-10 00:46:00,77.2,74.7,29.99,South,183,0.0,1.0,92,0.00,,---,0.00,VWS V14.01,2013-07-10 04:46:00,
2013-07-10 00:51:00,77.1,74.6,29.99,South,183,0.0,1.0,92,0.00,,---,0.00,VWS V14.01,2013-07-10 04:51:00,
2013-07-10 00:56:00,77.1,74.9,29.99,South,186,0.0,2.0,93,0.00,,---,0.00,VWS V14.01,2013-07-10 04:56:00,
2013-07-10 01:00:00,77.1,74.9,29.98,SSW,195,0.0,2.0,93,0.00,,---,0.00,VWS V14.01,2013-07-10 05:00:00,
2013-07-10 01:01:00,77.1,74.9,29.98,SSW,195,0.0,1.0,93,0.00,,---,0.00,VWS V14.01,2013-07-10 05:01:00,
2013-07-10 01:06:00,77.0,74.5,29.98,SSW,207,0.0,2.0,92,0.00,,---,0.00,VWS V14.01,2013-07-10 05:06:00,
2013-07-10 01:11:00,77.0,74.5,29.98,SSW,207,0.0,2.0,92,0.00,,---,0.00,VWS V14.01,2013-07-10 05:11:00,
2013-07-10 01:16:00,76.9,74.7,29.98,SSW,211,0.0,2.0,93,0.00,,---,0.00,VWS V14.01,2013-07-10 05:16:00,
2013-07-10 01:21:00,76.8,74.3,29.98,SW,226,0.0,2.0,92,0.00,,---,0.00,VWS V14.01,2013-07-10 05:21:00,
2013-07-10 01:26:00,76.8,74.6,29.98,SW,228,0.0,2.0,93,0.00,,---,0.00,VWS V14.01,2013-07-10 05:26:00,
2013-07-10 01:30:00,76.8,74.3,29.98,SW,229,0.0,2.0,92,0.00,,---,0.00,VWS V14.01,2013-07-10 05:30:00,
2013-07-10 01:31:00,76.8,74.3,29.98,SW,231,1.0,1.0,92,0.00,,---,0.00,VWS V14.01,2013-07-10 05:31:00,
2013-07-10 01:36:00,76.7,74.5,29.97,SW,231,0.0,1.0,93,0.00,,---,0.00,VWS V14.01,2013-07-10 05:36:00,
2013-07-10 01:41:00,76.7,74.5,29.97,SW,231,0.0,1.0,93,0.00,,---,0.00,VWS V14.01,2013-07-10 05:41:00,
2013-07-10 01:46:00,76.6,74.4,29.97,SSW,213,0.0,2.0,93,0.00,,---,0.00,VWS V14.01,2013-07-10 05:46:00,
2013-07-10 01:51:00,76.7,74.2,29.97,SW,214,0.0,2.0,92,0.00,,---,0.00,VWS V14.01,2013-07-10 05:51:00,
2013-07-10 01:56:00,76.6,74.4,29.97,SW,214,0.0,2.0,93,0.00,,---,0.00,VWS V14.01,2013-07-10 05:56:00,
2013-07-10 02:00:00,76.5,74.3,29.97,SW,214,0.0,2.0,93,0.00,,---,0.00,VWS V14.01,2013-07-10 06:00:00,
2013-07-10 02:01:00,76.5,74.3,29.97,SW,214,0.0,0.0,93,0.00,,---,0.00,VWS V14.01,2013-07-10 06:01:00,
2013-07-10 02:06:00,76.5,74.3,29.97,SW,214,0.0,1.0,93,0.00,,---,0.00,VWS V14.01,2013-07-10 06:06:00,
2013-07-10 02:11:00,76.4,74.2,29.97,SW,217,0.0,2.0,93,0.00,,---,0.00,VWS V14.01,2013-07-10 06:11:00,
2013-07-10 02:16:00,76.3,74.1,29.97,SW,217,0.0,2.0,93,0.00,,---,0.00,VWS V14.01,2013-07-10 06:16:00,
2013-07-10 02:21:00,76.2,73.7,29.97,SW,217,0.0,2.0,92,0.00,,---,0.00,VWS V14.01,2013-07-10 06:21:00,
2013-07-10 02:26:00,76.1,73.6,29.97,SW,217,1.0,2.0,92,0.00,,---,0.00,VWS V14.01,2013-07-10 06:26:00,
2013-07-10 02:30:00,76.1,73.6,29.97,SW,217,0.0,2.0,92,0.00,,---,0.00,VWS V14.01,2013-07-10 06:30:00,
2013-07-10 02:31:00,76.1,73.6,29.97,SW,217,0.0,0.0,92,0.00,,---,0.00,VWS V14.01,2013-07-10 06:31:00,
2013-07-10 02:36:00,76.1,73.6,29.97,SW,217,0.0,1.0,92,0.00,,---,0.00,VWS V14.01,2013-07-10 06:36:00,
2013-07-10 02:41:00,76.0,73.5,29.97,SW,217,0.0,1.0,92,0.00,,---,0.00,VWS V14.01,2013-07-10 06:41:00,
2013-07-10 02:46:00,76.0,73.5,29.97,SW,217,0.0,1.0,92,0.00,,---,0.00,VWS V14.01,2013-07-10 06:46:00,
2013-07-10 02:51:00,75.9,73.4,29.96,SW,217,0.0,1.0,92,0.00,,---,0.00,VWS V14.01,2013-07-10 06:51:00,
2013-07-10 02:56:00,75.7,73.5,29.96,SW,217,0.0,1.0,93,0.00,,---,0.00,VWS V14.01,2013-07-10 06:56:00,
2013-07-10 03:00:00,75.6,73.4,29.97,SW,217,0.0,1.0,93,0.00,,---,0.00,VWS V14.01,2013-07-10 07:00:00,
2013-07-10 03:01:00,75.6,73.4,29.97,SW,217,0.0,0.0,93,0.00,,---,0.00,VWS V14.01,2013-07-10 07:01:00,
2013-07-10 03:06:00,75.5,73.3,29.96,SW,217,0.0,0.0,93,0.00,,---,0.00,VWS V14.01,2013-07-10 07:06:00,
2013-07-10 03:11:00,75.3,73.1,29.96,SW,217,0.0,0.0,93,0.00,,---,0.00,VWS V14.01,2013-07-10 07:11:00,
2013-07-10 03:16:00,75.2,73.0,29.96,SW,217,0.0,1.0,93,0.00,,---,0.00,VWS V14.01,2013-07-10 07:16:00,
2013-07-10 03:21:00,75.2,73.0,29.96,SW,217,0.0,1.0,93,0.00,,---,0.00,VWS V14.01,2013-07-10 07:21:00,
2013-07-10 03:26:00,75.2,73.0,29.96,SW,217,0.0,1.0,93,0.00,,---,0.00,VWS V14.01,2013-07-10 07:26:00,
2013-07-10 03:30:00,75.3,73.1,29.96,SW,220,0.0,2.0,93,0.00,,---,0.00,VWS V14.01,2013-07-10 07:30:00,
2013-07-10 03:31:00,75.3,73.1,29.96,SW,220,0.0,1.0,93,0.00,,---,0.00,VWS V14.01,2013-07-10 07:31:00,
2013-07-10 03:36:00,75.3,73.1,29.96,SW,220,0.0,1.0,93,0.00,,---,0.00,VWS V14.01,2013-07-10 07:36:00,
2013-07-10 03:41:00,75.4,73.2,29.96,SW,220,0.0,1.0,93,0.00,,---,0.00,VWS V14.01,2013-07-10 07:41:00,
2013-07-10 03:46:00,75.5,73.0,29.96,SW,220,0.0,1.0,92,0.00,,---,0.00,VWS V14.01,2013-07-10 07:46:00,
2013-07-10 03:51:00,75.5,73.0,29.96,SW,220,0.0,1.0,92,0.00,,---,0.00,VWS V14.01,2013-07-10 07:51:00,
2013-07-10 03:56:00,75.6,73.1,29.96,SW,220,0.0,1.0,92,0.00,,---,0.00,VWS V14.01,2013-07-10 07:56:00,
2013-07-10 04:00:00,75.6,73.1,29.96,SW,220,0.0,1.0,92,0.00,,---,0.00,VWS V14.01,2013-07-10 08:00:00,
2013-07-10 04:01:00,75.6,73.1,29.96,SW,220,0.0,0.0,92,0.00,,---,0.00,VWS V14.01,2013-07-10 08:01:00,
2013-07-10 04:06:00,75.7,73.2,29.96,SW,220,0.0,0.0,92,0.00,,---,0.00,VWS V14.01,2013-07-10 08:06:00,
2013-07-10 04:11:00,75.8,73.3,29.96,SW,220,0.0,1.0,92,0.00,,---,0.00,VWS V14.01,2013-07-10 08:11:00,
2013-07-10 04:16:00,75.9,73.4,29.96,SW,220,0.0,1.0,92,0.00,,---,0.00,VWS V14.01,2013-07-10 08:16:00,
2013-07-10 04:21:00,75.9,73.4,29.96,SW,221,0.0,2.0,92,0.00,,---,0.00,VWS V14.01,2013-07-10 08:21:00,
2013-07-10 04:26:00,76.0,73.5,29.96,SW,221,0.0,2.0,92,0.00,,---,0.00,VWS V14.01,2013-07-10 08:26:00,
2013-07-10 04:30:00,75.3,73.1,29.96,SW,220,0.0,2.0,93,0.00,,---,0.00,VWS V14.01,2013-07-10 08:30:00,
2013-07-10 04:31:00,76.0,73.5,29.96,SW,221,0.0,0.0,92,0.00,,---,0.00,VWS V14.01,2013-07-10 08:31:00,
2013-07-10 04:36:00,75.9,73.4,29.96,SW,221,0.0,1.0,92,0.00,,---,0.00,VWS V14.01,2013-07-10 08:36:00,
2013-07-10 04:41:00,75.8,73.3,29.96,SW,221,0.0,1.0,92,0.00,,---,0.00,VWS V14.01,2013-07-10 08:41:00,
2013-07-10 04:46:00,75.8,73.3,29.96,SW,221,0.0,1.0,92,0.00,,---,0.00,VWS V14.01,2013-07-10 08:46:00,
2013-07-10 04:51:00,75.7,73.5,29.96,SW,221,0.0,1.0,93,0.00,,---,0.00,VWS V14.01,2013-07-10 08:51:00,
2013-07-10 04:56:00,75.6,73.4,29.96,SW,221,0.0,1.0,93,0.00,,---,0.00,VWS V14.01,2013-07-10 08:56:00,
2013-07-10 05:00:00,75.6,73.1,29.96,SW,220,0.0,1.0,92,0.00,,---,0.00,VWS V14.01,2013-07-10 09:00:00,
2013-07-10 05:01:00,75.7,73.5,29.96,SW,221,0.0,0.0,93,0.00,,---,0.00,VWS V14.01,2013-07-10 09:01:00,
2013-07-10 05:06:00,75.7,73.5,29.96,SW,224,0.0,2.0,93,0.00,,---,0.00,VWS V14.01,2013-07-10 09:06:00,
2013-07-10 05:11:00,75.6,73.4,29.96,SW,224,0.0,2.0,93,0.00,,---,0.00,VWS V14.01,2013-07-10 09:11:00,
2013-07-10 05:16:00,75.5,73.3,29.96,SW,224,0.0,2.0,93,0.00,,---,0.00,VWS V14.01,2013-07-10 09:16:00,
2013-07-10 05:21:00,75.5,73.7,29.96,SW,224,0.0,2.0,94,0.00,,---,0.00,VWS V14.01,2013-07-10 09:21:00,
2013-07-10 05:26:00,75.4,73.6,29.97,SW,224,0.0,2.0,94,0.00,,---,0.00,VWS V14.01,2013-07-10 09:26:00,
2013-07-10 05:30:00,75.4,73.6,29.97,SW,224,0.0,2.0,94,0.00,,---,0.00,VWS V14.01,2013-07-10 09:30:00,
2013-07-10 05:31:00,75.5,73.7,29.97,SW,224,0.0,0.0,94,0.00,,---,0.00,VWS V14.01,2013-07-10 09:31:00,
2013-07-10 05:36:00,75.4,73.6,29.97,SW,224,0.0,1.0,94,0.00,,---,0.00,VWS V14.01,2013-07-10 09:36:00,
2013-07-10 05:41:00,75.4,73.6,29.97,SW,224,0.0,1.0,94,0.00,,---,0.00,VWS V14.01,2013-07-10 09:41:00,
2013-07-10 05:46:00,75.3,73.8,29.97,SW,224,0.0,2.0,95,0.00,,---,0.00,VWS V14.01,2013-07-10 09:46:00,
2013-07-10 05:51:00,75.4,73.9,29.97,WSW,237,0.0,2.0,95,0.00,,---,0.00,VWS V14.01,2013-07-10 09:51:00,
2013-07-10 05:56:00,75.5,74.0,29.97,NW,319,0.0,2.0,95,0.00,,---,0.00,VWS V14.01,2013-07-10 09:56:00,
2013-07-10 06:00:00,75.6,74.1,29.97,West,259,1.0,2.0,95,0.00,,---,0.00,VWS V14.01,2013-07-10 10:00:00,
2013-07-10 06:01:00,75.6,74.1,29.97,West,259,0.0,1.0,95,0.00,,---,0.00,VWS V14.01,2013-07-10 10:01:00,
2013-07-10 06:06:00,75.6,74.1,29.97,West,259,0.0,1.0,95,0.00,,---,0.00,VWS V14.01,2013-07-10 10:06:00,
2013-07-10 06:11:00,75.6,74.1,29.97,West,259,1.0,1.0,95,0.00,,---,0.00,VWS V14.01,2013-07-10 10:11:00,
2013-07-10 06:16:00,75.6,74.1,29.97,West,259,0.0,2.0,95,0.00,,---,0.00,VWS V14.01,2013-07-10 10:16:00,
2013-07-10 06:21:00,75.7,74.2,29.97,West,259,0.0,2.0,95,0.00,,---,0.00,VWS V14.01,2013-07-10 10:21:00,
2013-07-10 06:26:00,75.7,74.2,29.97,West,259,0.0,2.0,95,0.00,,---,0.00,VWS V14.01,2013-07-10 10:26:00,
2013-07-10 06:30:00,75.8,74.3,29.97,WSW,255,0.0,2.0,95,0.00,,---,0.00,VWS V14.01,2013-07-10 10:30:00,
2013-07-10 06:31:00,75.8,74.3,29.97,WSW,255,0.0,0.0,95,0.00,,---,0.00,VWS V14.01,2013-07-10 10:31:00,
2013-07-10 06:36:00,75.9,74.4,29.97,WSW,255,0.0,1.0,95,0.00,,---,0.00,VWS V14.01,2013-07-10 10:36:00,
2013-07-10 06:41:00,76.1,74.6,29.97,WSW,255,0.0,1.0,95,0.00,,---,0.00,VWS V14.01,2013-07-10 10:41:00,
2013-07-10 06:46:00,76.2,74.7,29.97,WSW,255,0.0,2.0,95,0.00,,---,0.00,VWS V14.01,2013-07-10 10:46:00,
2013-07-10 06:51:00,76.4,74.9,29.97,WSW,258,0.0,2.0,95,0.00,,---,0.00,VWS V14.01,2013-07-10 10:51:00,
2013-07-10 06:56:00,76.4,74.9,29.97,WSW,257,0.0,2.0,95,0.00,,---,0.00,VWS V14.01,2013-07-10 10:56:00,
2013-07-10 07:00:00,76.4,74.9,29.97,WSW,258,0.0,2.0,95,0.00,,---,0.00,VWS V14.01,2013-07-10 11:00:00,
2013-07-10 07:01:00,76.4,74.9,29.97,WSW,258,0.0,0.0,95,0.00,,---,0.00,VWS V14.01,2013-07-10 11:01:00,
2013-07-10 07:06:00,76.5,75.0,29.97,WSW,258,0.0,1.0,95,0.00,,---,0.00,VWS V14.01,2013-07-10 11:06:00,
2013-07-10 07:11:00,76.6,75.1,29.97,WSW,257,0.0,2.0,95,0.00,,---,0.00,VWS V14.01,2013-07-10 11:11:00,
2013-07-10 07:16:00,76.6,74.8,29.97,WSW,258,0.0,3.0,94,0.00,,---,0.00,VWS V14.01,2013-07-10 11:16:00,
2013-07-10 07:21:00,76.7,74.8,29.97,WSW,258,1.0,3.0,94,0.00,,---,0.00,VWS V14.01,2013-07-10 11:21:00,
2013-07-10 07:26:00,76.8,74.9,29.97,WSW,258,0.0,3.0,94,0.00,,---,0.00,VWS V14.01,2013-07-10 11:26:00,
2013-07-10 07:30:00,77.2,75.3,29.97,North,356,0.0,3.0,94,0.00,,---,0.00,VWS V14.01,2013-07-10 11:30:00,
2013-07-10 07:31:00,77.3,75.4,29.97,North,356,0.0,0.0,94,0.00,,---,0.00,VWS V14.01,2013-07-10 11:31:00,
2013-07-10 07:36:00,77.7,75.5,29.97,West,266,0.0,2.0,93,0.00,,---,0.00,VWS V14.01,2013-07-10 11:36:00,
2013-07-10 07:41:00,78.0,75.5,29.96,West,269,1.0,3.0,92,0.00,,---,0.00,VWS V14.01,2013-07-10 11:41:00,
2013-07-10 07:46:00,78.2,75.7,29.97,West,268,1.0,3.0,92,0.00,,---,0.00,VWS V14.01,2013-07-10 11:46:00,
2013-07-10 07:51:00,78.5,76.0,29.96,West,268,0.0,3.0,92,0.00,,---,0.00,VWS V14.01,2013-07-10 11:51:00,
2013-07-10 07:56:00,78.8,75.9,29.96,West,268,0.0,3.0,91,0.00,,---,0.00,VWS V14.01,2013-07-10 11:56:00,
2013-07-10 08:00:00,78.8,75.9,29.96,West,268,1.0,3.0,91,0.00,,---,0.00,VWS V14.01,2013-07-10 12:00:00,
2013-07-10 08:01:00,78.8,75.9,29.96,West,267,2.0,2.0,91,0.00,,---,0.00,VWS V14.01,2013-07-10 12:01:00,
2013-07-10 08:06:00,78.9,76.1,29.96,West,267,1.0,2.0,91,0.00,,---,0.00,VWS V14.01,2013-07-10 12:06:00,
2013-07-10 08:11:00,79.0,76.2,29.97,WSW,242,1.0,2.0,91,0.00,,---,0.00,VWS V14.01,2013-07-10 12:11:00,
2013-07-10 08:16:00,79.1,75.9,29.97,WSW,252,0.0,2.0,90,0.00,,---,0.00,VWS V14.01,2013-07-10 12:16:00,
2013-07-10 08:21:00,79.1,75.9,29.97,WSW,252,1.0,2.0,90,0.00,,---,0.00,VWS V14.01,2013-07-10 12:21:00,
2013-07-10 08:26:00,79.1,75.9,29.97,WSW,245,0.0,2.0,90,0.00,,---,0.00,VWS V14.01,2013-07-10 12:26:00,
2013-07-10 08:30:00,79.0,75.8,29.97,WSW,245,0.0,2.0,90,0.00,,---,0.00,VWS V14.01,2013-07-10 12:30:00,
2013-07-10 08:31:00,79.0,75.8,29.97,SW,221,1.0,1.0,90,0.00,,---,0.00,VWS V14.01,2013-07-10 12:31:00,
2013-07-10 08:36:00,79.1,76.2,29.97,SW,221,0.0,1.0,91,0.00,,---,0.00,VWS V14.01,2013-07-10 12:36:00,
2013-07-10 08:41:00,79.2,76.3,29.97,SW,221,1.0,1.0,91,0.00,,---,0.00,VWS V14.01,2013-07-10 12:41:00,
2013-07-10 08:46:00,79.2,76.0,29.97,SW,221,1.0,1.0,90,0.00,,---,0.00,VWS V14.01,2013-07-10 12:46:00,
2013-07-10 08:51:00,79.2,76.0,29.97,SW,221,1.0,2.0,90,0.00,,---,0.00,VWS V14.01,2013-07-10 12:51:00,
2013-07-10 08:56:00,79.2,76.0,29.98,SW,221,0.0,2.0,90,0.00,,---,0.00,VWS V14.01,2013-07-10 12:56:00,
2013-07-10 09:00:00,79.3,76.1,29.98,SW,222,0.0,2.0,90,0.00,,---,0.00,VWS V14.01,2013-07-10 13:00:00,
2013-07-10 09:01:00,79.2,76.0,29.98,SW,222,0.0,2.0,90,0.00,,---,0.00,VWS V14.01,2013-07-10 13:01:00,
2013-07-10 09:06:00,79.2,76.0,29.97,SW,222,0.0,2.0,90,0.00,,---,0.00,VWS V14.01,2013-07-10 13:06:00,
2013-07-10 09:11:00,79.3,76.1,29.97,SW,222,0.0,2.0,90,0.00,,---,0.00,VWS V14.01,2013-07-10 13:11:00,
2013-07-10 09:16:00,79.5,76.3,29.97,SW,222,0.0,2.0,90,0.00,,---,0.00,VWS V14.01,2013-07-10 13:16:00,
2013-07-10 09:21:00,79.6,76.4,29.97,SW,222,0.0,2.0,90,0.00,,---,0.00,VWS V14.01,2013-07-10 13:21:00,
2013-07-10 09:26:00,79.6,76.4,29.98,SW,231,1.0,2.0,90,0.00,,---,0.00,VWS V14.01,2013-07-10 13:26:00,
2013-07-10 09:30:00,79.0,75.8,29.97,WSW,245,0.0,2.0,90,0.00,,---,0.00,VWS V14.01,2013-07-10 13:30:00,
2013-07-10 09:31:00,79.7,76.5,29.97,West,264,0.0,0.0,90,0.00,,---,0.00,VWS V14.01,2013-07-10 13:31:00,
2013-07-10 09:36:00,80.0,76.8,29.97,West,263,1.0,3.0,90,0.00,,---,0.00,VWS V14.01,2013-07-10 13:36:00,
2013-07-10 09:41:00,80.2,77.0,29.97,West,263,0.0,3.0,90,0.00,,---,0.00,VWS V14.01,2013-07-10 13:41:00,
2013-07-10 09:46:00,80.2,76.7,29.97,West,263,0.0,3.0,89,0.00,,---,0.00,VWS V14.01,2013-07-10 13:46:00,
2013-07-10 09:51:00,80.1,76.9,29.97,West,263,0.0,3.0,90,0.00,,---,0.00,VWS V14.01,2013-07-10 13:51:00,
2013-07-10 09:56:00,79.9,76.7,29.97,West,263,0.0,3.0,90,0.00,,---,0.00,VWS V14.01,2013-07-10 13:56:00,
2013-07-10 10:00:00,79.8,76.9,29.97,West,263,0.0,3.0,91,0.00,,---,0.00,VWS V14.01,2013-07-10 14:00:00,
2013-07-10 10:01:00,79.8,76.9,29.97,West,260,0.0,1.0,91,0.00,,---,0.00,VWS V14.01,2013-07-10 14:01:00,
2013-07-10 10:06:00,79.9,77.0,29.97,West,261,0.0,3.0,91,0.00,,---,0.00,VWS V14.01,2013-07-10 14:06:00,
2013-07-10 10:11:00,80.0,77.1,29.97,West,261,0.0,3.0,91,0.00,,---,0.00,VWS V14.01,2013-07-10 14:11:00,
2013-07-10 10:16:00,80.0,77.1,29.97,West,261,0.0,3.0,91,0.00,,---,0.00,VWS V14.01,2013-07-10 14:16:00,
2013-07-10 10:21:00,79.7,77.2,29.97,West,262,1.0,3.0,92,0.00,,---,0.00,VWS V14.01,2013-07-10 14:21:00,
2013-07-10 10:26:00,79.5,77.0,29.98,West,263,1.0,3.0,92,0.00,,---,0.00,VWS V14.01,2013-07-10 14:26:00,
2013-07-10 10:30:00,79.4,76.9,29.97,West,263,0.0,3.0,92,0.00,,---,0.00,VWS V14.01,2013-07-10 14:30:00,
2013-07-10 10:31:00,79.4,77.2,29.97,West,263,0.0,1.0,93,0.00,,---,0.00,VWS V14.01,2013-07-10 14:31:00,
2013-07-10 10:36:00,79.3,77.1,29.97,West,263,0.0,1.0,93,0.00,,---,0.00,VWS V14.01,2013-07-10 14:36:00,
2013-07-10 10:41:00,79.3,77.1,29.97,West,263,0.0,2.0,93,0.00,,---,0.00,VWS V14.01,2013-07-10 14:41:00,
2013-07-10 10:46:00,79.4,77.2,29.97,West,260,0.0,2.0,93,0.00,,---,0.00,VWS V14.01,2013-07-10 14:46:00,
2013-07-10 10:51:00,79.6,77.4,29.97,West,260,0.0,2.0,93,0.00,,---,0.00,VWS V14.01,2013-07-10 14:51:00,
2013-07-10 10:56:00,80.0,77.8,29.97,West,260,0.0,2.0,93,0.00,,---,0.00,VWS V14.01,2013-07-10 14:56:00,
2013-07-10 11:00:00,80.1,77.6,29.97,West,260,0.0,2.0,92,0.00,,---,0.00,VWS V14.01,2013-07-10 15:00:00,
2013-07-10 11:01:00,80.1,77.6,29.97,West,260,1.0,1.0,92,0.00,,---,0.00,VWS V14.01,2013-07-10 15:01:00,
2013-07-10 11:06:00,80.4,77.9,29.97,West,260,0.0,1.0,92,0.00,,---,0.00,VWS V14.01,2013-07-10 15:06:00,
2013-07-10 11:11:00,80.5,77.6,29.97,West,260,0.0,2.0,91,0.00,,---,0.00,VWS V14.01,2013-07-10 15:11:00,
2013-07-10 11:16:00,80.6,77.4,29.97,West,260,0.0,2.0,90,0.00,,---,0.00,VWS V14.01,2013-07-10 15:16:00,
2013-07-10 11:21:00,80.9,77.7,29.97,West,260,0.0,2.0,90,0.00,,---,0.00,VWS V14.01,2013-07-10 15:21:00,
2013-07-10 11:26:00,81.1,77.2,29.97,WSW,255,1.0,3.0,88,0.00,,---,0.00,VWS V14.01,2013-07-10 15:26:00,
2013-07-10 11:30:00,81.3,77.4,29.97,WSW,252,0.0,3.0,88,0.00,,---,0.00,VWS V14.01,2013-07-10 15:30:00,
2013-07-10 11:31:00,81.3,77.4,29.97,South,175,0.0,1.0,88,0.00,,---,0.00,VWS V14.01,2013-07-10 15:31:00,
2013-07-10 11:36:00,81.7,77.5,29.98,SSW,198,0.0,1.0,87,0.00,,---,0.00,VWS V14.01,2013-07-10 15:36:00,
2013-07-10 11:41:00,81.9,77.3,29.98,SSW,200,0.0,1.0,86,0.00,,---,0.00,VWS V14.01,2013-07-10 15:41:00,
2013-07-10 11:46:00,81.9,77.3,29.98,SSW,200,0.0,1.0,86,0.00,,---,0.00,VWS V14.01,2013-07-10 15:46:00,
2013-07-10 11:51:00,81.8,77.2,29.97,SSW,204,0.0,1.0,86,0.00,,---,0.00,VWS V14.01,2013-07-10 15:51:00,
2013-07-10 11:56:00,81.6,77.4,29.97,SSW,204,0.0,1.0,87,0.00,,---,0.00,VWS V14.01,2013-07-10 15:56:00,
2013-07-10 12:00:00,81.8,77.6,29.97,SSW,205,0.0,1.0,87,0.00,,---,0.00,VWS V14.01,2013-07-10 16:00:00,
2013-07-10 12:01:00,81.8,77.2,29.97,SSW,205,1.0,1.0,86,0.00,,---,0.00,VWS V14.01,2013-07-10 16:01:00,
2013-07-10 12:06:00,82.2,77.6,29.97,SSW,205,0.0,1.0,86,0.00,,---,0.00,VWS V14.01,2013-07-10 16:06:00,
2013-07-10 12:11:00,82.7,77.4,29.97,WSW,249,0.0,2.0,84,0.00,,---,0.00,VWS V14.01,2013-07-10 16:11:00,
2013-07-10 12:16:00,83.4,78.4,29.97,WSW,250,0.0,2.0,85,0.00,,---,0.00,VWS V14.01,2013-07-10 16:16:00,
2013-07-10 12:21:00,84.3,77.5,29.96,West,259,0.0,2.0,80,0.00,,---,0.00,VWS V14.01,2013-07-10 16:21:00,
2013-07-10 12:26:00,84.6,77.0,29.96,West,259,0.0,2.0,78,0.00,,---,0.00,VWS V14.01,2013-07-10 16:26:00,
2013-07-10 12:30:00,85.9,78.6,29.96,West,272,1.0,2.0,79,0.00,,---,0.00,VWS V14.01,2013-07-10 16:30:00,
2013-07-10 12:31:00,86.1,78.1,29.96,West,272,0.0,1.0,77,0.00,,---,0.00,VWS V14.01,2013-07-10 16:31:00,
2013-07-10 12:36:00,86.3,77.0,29.96,WSW,252,1.0,2.0,74,0.00,,---,0.00,VWS V14.01,2013-07-10 16:36:00,
2013-07-10 12:41:00,86.7,77.4,29.96,WSW,256,1.0,3.0,74,0.00,,---,0.00,VWS V14.01,2013-07-10 16:41:00,
2013-07-10 12:46:00,87.0,76.9,29.96,WSW,247,0.0,4.0,72,0.00,,---,0.00,VWS V14.01,2013-07-10 16:46:00,
2013-07-10 12:51:00,86.5,76.4,29.96,WSW,247,0.0,4.0,72,0.00,,---,0.00,VWS V14.01,2013-07-10 16:51:00,
2013-07-10 12:56:00,85.5,76.3,29.96,WSW,247,0.0,4.0,74,0.00,,---,0.00,VWS V14.01,2013-07-10 16:56:00,
2013-07-10 13:00:00,84.9,75.7,29.96,WSW,247,1.0,4.0,74,0.00,,---,0.00,VWS V14.01,2013-07-10 17:00:00,
2013-07-10 13:01:00,84.8,75.6,29.96,WSW,247,0.0,3.0,74,0.00,,---,0.00,VWS V14.01,2013-07-10 17:01:00,
2013-07-10 13:06:00,84.8,76.4,29.95,WSW,248,0.0,3.0,76,0.00,,---,0.00,VWS V14.01,2013-07-10 17:06:00,
2013-07-10 13:11:00,84.6,75.4,29.95,WSW,250,0.0,3.0,74,0.00,,---,0.00,VWS V14.01,2013-07-10 17:11:00,
2013-07-10 13:16:00,84.2,75.8,29.95,WSW,250,0.0,3.0,76,0.00,,---,0.00,VWS V14.01,2013-07-10 17:16:00,
2013-07-10 13:21:00,84.1,76.1,29.95,SSE,165,0.0,3.0,77,0.00,,---,0.00,VWS V14.01,2013-07-10 17:21:00,
2013-07-10 13:26:00,83.9,75.9,29.95,South,188,0.0,3.0,77,0.00,,---,0.00,VWS V14.01,2013-07-10 17:26:00,
2013-07-10 13:30:00,85.9,78.6,29.96,West,272,1.0,2.0,79,0.00,,---,0.00,VWS V14.01,2013-07-10 17:30:00,
2013-07-10 13:31:00,84.0,76.0,29.94,SSW,195,0.0,1.0,77,0.00,,---,0.00,VWS V14.01,2013-07-10 17:31:00,
2013-07-10 13:36:00,84.6,76.2,29.94,West,274,1.0,2.0,76,0.00,,---,0.00,VWS V14.01,2013-07-10 17:36:00,
2013-07-10 13:41:00,85.7,76.9,29.94,WSW,258,1.0,4.0,75,0.00,,---,0.00,VWS V14.01,2013-07-10 17:41:00,
2013-07-10 13:46:00,86.5,77.2,29.94,WSW,251,0.0,4.0,74,0.00,,---,0.00,VWS V14.01,2013-07-10 17:46:00,
2013-07-10 13:51:00,86.3,76.6,29.94,WSW,257,2.0,5.0,73,0.00,,---,0.00,VWS V14.01,2013-07-10 17:51:00,
2013-07-10 13:56:00,86.5,76.4,29.93,WNW,292,0.0,5.0,72,0.00,,---,0.00,VWS V14.01,2013-07-10 17:56:00,
2013-07-10 14:00:00,86.4,76.7,29.93,SW,231,2.0,5.0,73,0.00,,---,0.00,VWS V14.01,2013-07-10 18:00:00,
2013-07-10 14:01:00,86.4,76.7,29.93,SW,235,0.0,3.0,73,0.00,,---,0.00,VWS V14.01,2013-07-10 18:01:00,
2013-07-10 14:06:00,86.2,76.9,29.92,NW,316,0.0,3.0,74,0.00,,---,0.00,VWS V14.01,2013-07-10 18:06:00,
2013-07-10 14:11:00,86.3,77.0,29.92,SW,233,0.0,3.0,74,0.00,,---,0.00,VWS V14.01,2013-07-10 18:11:00,
2013-07-10 14:16:00,86.4,77.1,29.92,West,262,0.0,4.0,74,0.00,,---,0.00,VWS V14.01,2013-07-10 18:16:00,
2013-07-10 14:21:00,87.4,78.1,29.92,WSW,256,0.0,4.0,74,0.00,,---,0.00,VWS V14.01,2013-07-10 18:21:00,
2013-07-10 14:26:00,87.4,76.8,29.92,WSW,241,1.0,5.0,71,0.00,,---,0.00,VWS V14.01,2013-07-10 18:26:00,
2013-07-10 14:30:00,86.5,76.4,29.91,WSW,257,1.0,5.0,72,0.00,,---,0.00,VWS V14.01,2013-07-10 18:30:00,
2013-07-10 14:31:00,86.5,76.4,29.91,West,274,0.0,2.0,72,0.00,,---,0.00,VWS V14.01,2013-07-10 18:31:00,
2013-07-10 14:36:00,86.3,77.0,29.91,West,276,0.0,2.0,74,0.00,,---,0.00,VWS V14.01,2013-07-10 18:36:00,
2013-07-10 14:41:00,88.7,80.2,29.90,West,276,0.0,2.0,76,0.00,,---,0.00,VWS V14.01,2013-07-10 18:41:00,
2013-07-10 14:46:00,89.1,77.6,29.90,West,280,0.0,6.0,69,0.00,,---,0.00,VWS V14.01,2013-07-10 18:46:00,
2013-07-10 14:51:00,89.4,79.2,29.89,NNW,337,1.0,6.0,72,0.00,,---,0.00,VWS V14.01,2013-07-10 18:51:00,
2013-07-10 14:56:00,89.6,77.6,29.89,WSW,247,0.0,6.0,68,0.00,,---,0.00,VWS V14.01,2013-07-10 18:56:00,
2013-07-10 15:00:00,89.1,76.3,29.89,North,1,2.0,6.0,66,0.00,,---,0.00,VWS V14.01,2013-07-10 19:00:00,
2013-07-10 15:01:00,89.1,76.3,29.89,West,279,1.0,3.0,66,0.00,,---,0.00,VWS V14.01,2013-07-10 19:01:00,
2013-07-10 15:06:00,88.9,77.0,29.88,West,278,1.0,3.0,68,0.00,,---,0.00,VWS V14.01,2013-07-10 19:06:00,
2013-07-10 15:11:00,89.1,76.3,29.88,WSW,248,3.0,4.0,66,0.00,,---,0.00,VWS V14.01,2013-07-10 19:11:00,
2013-07-10 15:16:00,88.3,76.0,29.87,WSW,237,1.0,4.0,67,0.00,,---,0.00,VWS V14.01,2013-07-10 19:16:00,
2013-07-10 15:21:00,87.9,76.5,29.87,WNW,285,1.0,4.0,69,0.00,,---,0.00,VWS V14.01,2013-07-10 19:21:00,
2013-07-10 15:26:00,88.7,77.7,29.87,East,86,0.0,4.0,70,0.00,,---,0.00,VWS V14.01,2013-07-10 19:26:00,
2013-07-10 15:30:00,88.9,77.4,29.87,West,278,0.0,4.0,69,0.00,,---,0.00,VWS V14.01,2013-07-10 19:30:00,
2013-07-10 15:31:00,88.9,77.8,29.87,WSW,258,3.0,3.0,70,0.00,,---,0.00,VWS V14.01,2013-07-10 19:31:00,
2013-07-10 15:36:00,88.4,76.9,29.86,West,260,0.0,4.0,69,0.00,,---,0.00,VWS V14.01,2013-07-10 19:36:00,
2013-07-10 15:41:00,88.6,77.6,29.86,WSW,252,2.0,4.0,70,0.00,,---,0.00,VWS V14.01,2013-07-10 19:41:00,
2013-07-10 15:46:00,88.4,76.5,29.86,WSW,247,2.0,4.0,68,0.00,,---,0.00,VWS V14.01,2013-07-10 19:46:00,
2013-07-10 15:51:00,88.5,77.5,29.86,WSW,257,0.0,4.0,70,0.00,,---,0.00,VWS V14.01,2013-07-10 19:51:00,
2013-07-10 15:56:00,89.1,78.0,29.86,NNE,30,1.0,4.0,70,0.00,,---,0.00,VWS V14.01,2013-07-10 19:56:00,
2013-07-10 16:00:00,89.3,78.7,29.85,SW,233,1.0,4.0,71,0.00,,---,0.00,VWS V14.01,2013-07-10 20:00:00,
2013-07-10 16:01:00,89.3,78.2,29.85,WSW,244,3.0,3.0,70,0.00,,---,0.00,VWS V14.01,2013-07-10 20:01:00,
2013-07-10 16:06:00,89.6,77.6,29.86,WNW,302,1.0,4.0,68,0.00,,---,0.00,VWS V14.01,2013-07-10 20:06:00,
2013-07-10 16:11:00,89.3,76.9,29.86,NE,34,1.0,5.0,67,0.00,,---,0.00,VWS V14.01,2013-07-10 20:11:00,
2013-07-10 16:16:00,89.1,76.7,29.86,WSW,258,0.0,5.0,67,0.00,,---,0.00,VWS V14.01,2013-07-10 20:16:00,
2013-07-10 16:21:00,89.0,77.5,29.86,West,260,1.0,5.0,69,0.00,,---,0.00,VWS V14.01,2013-07-10 20:21:00,
2013-07-10 16:26:00,89.5,78.0,29.86,WSW,258,0.0,5.0,69,0.00,,---,0.00,VWS V14.01,2013-07-10 20:26:00,
2013-07-10 16:30:00,89.2,77.7,29.86,WSW,245,1.0,5.0,69,0.00,,---,0.00,VWS V14.01,2013-07-10 20:30:00,
2013-07-10 16:31:00,89.2,78.6,29.85,WSW,245,0.0,1.0,71,0.00,,---,0.00,VWS V14.01,2013-07-10 20:31:00,
2013-07-10 16:36:00,89.6,77.2,29.85,WSW,256,0.0,5.0,67,0.00,,---,0.00,VWS V14.01,2013-07-10 20:36:00,
2013-07-10 16:41:00,89.6,77.6,29.85,North,360,0.0,5.0,68,0.00,,---,0.00,VWS V14.01,2013-07-10 20:41:00,
2013-07-10 16:46:00,89.6,77.2,29.85,WSW,252,0.0,5.0,67,0.00,,---,0.00,VWS V14.01,2013-07-10 20:46:00,
2013-07-10 16:51:00,88.9,77.4,29.85,NW,317,0.0,5.0,69,0.00,,---,0.00,VWS V14.01,2013-07-10 20:51:00,
2013-07-10 16:56:00,88.7,77.7,29.84,NW,314,0.0,5.0,70,0.00,,---,0.00,VWS V14.01,2013-07-10 20:56:00,
2013-07-10 17:00:00,88.8,77.8,29.85,NW,314,0.0,5.0,70,0.00,,---,0.00,VWS V14.01,2013-07-10 21:00:00,
2013-07-10 17:01:00,88.7,77.7,29.85,NW,311,2.0,2.0,70,0.00,,---,0.00,VWS V14.01,2013-07-10 21:01:00,
2013-07-10 17:06:00,88.3,78.1,29.85,WNW,296,0.0,2.0,72,0.00,,---,0.00,VWS V14.01,2013-07-10 21:06:00,
2013-07-10 17:11:00,88.1,76.2,29.85,WNW,295,0.0,2.0,68,0.00,,---,0.00,VWS V14.01,2013-07-10 21:11:00,
2013-07-10 17:16:00,88.3,76.0,29.85,West,259,0.0,4.0,67,0.00,,---,0.00,VWS V14.01,2013-07-10 21:16:00,
2013-07-10 17:21:00,88.7,75.4,29.86,WSW,258,1.0,4.0,65,0.00,,---,0.00,VWS V14.01,2013-07-10 21:21:00,
2013-07-10 17:26:00,88.7,75.9,29.86,WSW,258,0.0,4.0,66,0.00,,---,0.00,VWS V14.01,2013-07-10 21:26:00,
2013-07-10 17:30:00,88.8,76.0,29.86,WSW,247,1.0,4.0,66,0.00,,---,0.00,VWS V14.01,2013-07-10 21:30:00,
2013-07-10 17:31:00,88.8,76.0,29.86,WSW,247,0.0,1.0,66,0.00,,---,0.00,VWS V14.01,2013-07-10 21:31:00,
2013-07-10 17:36:00,88.8,76.0,29.86,SW,231,0.0,4.0,66,0.00,,---,0.00,VWS V14.01,2013-07-10 21:36:00,
2013-07-10 17:41:00,88.4,76.1,29.86,WSW,254,0.0,4.0,67,0.00,,---,0.00,VWS V14.01,2013-07-10 21:41:00,
2013-07-10 17:46:00,88.0,75.7,29.86,WSW,257,1.0,5.0,67,0.00,,---,0.00,VWS V14.01,2013-07-10 21:46:00,
2013-07-10 17:51:00,87.7,75.8,29.86,WSW,255,0.0,5.0,68,0.00,,---,0.00,VWS V14.01,2013-07-10 21:51:00,
2013-07-10 17:56:00,87.3,76.3,29.86,WSW,257,0.0,5.0,70,0.00,,---,0.00,VWS V14.01,2013-07-10 21:56:00,
2013-07-10 18:00:00,88.8,77.8,29.85,NW,314,0.0,5.0,70,0.00,,---,0.00,VWS V14.01,2013-07-10 22:00:00,
2013-07-10 18:01:00,86.8,75.8,29.85,East,81,1.0,1.0,70,0.00,,---,0.00,VWS V14.01,2013-07-10 22:01:00,
2013-07-10 18:06:00,86.6,76.9,29.85,East,81,0.0,1.0,73,0.00,,---,0.00,VWS V14.01,2013-07-10 22:06:00,
2013-07-10 18:11:00,86.3,76.2,29.85,East,84,0.0,2.0,72,0.00,,---,0.00,VWS V14.01,2013-07-10 22:11:00,
2013-07-10 18:16:00,86.1,76.0,29.84,ENE,77,0.0,2.0,72,0.00,,---,0.00,VWS V14.01,2013-07-10 22:16:00,
2013-07-10 18:21:00,85.9,76.2,29.85,NNW,337,0.0,2.0,73,0.00,,---,0.00,VWS V14.01,2013-07-10 22:21:00,
2013-07-10 18:26:00,85.6,76.0,29.85,WNW,299,1.0,2.0,73,0.00,,---,0.00,VWS V14.01,2013-07-10 22:26:00,
2013-07-10 18:30:00,85.5,76.3,29.85,West,274,0.0,3.0,74,0.00,,---,0.00,VWS V14.01,2013-07-10 22:30:00,
2013-07-10 18:31:00,85.5,76.3,29.85,West,265,0.0,3.0,74,0.00,,---,0.00,VWS V14.01,2013-07-10 22:31:00,
2013-07-10 18:36:00,85.4,76.6,29.86,WNW,286,0.0,3.0,75,0.00,,---,0.00,VWS V14.01,2013-07-10 22:36:00,
2013-07-10 18:41:00,85.3,76.1,29.86,West,261,0.0,4.0,74,0.00,,---,0.00,VWS V14.01,2013-07-10 22:41:00,
2013-07-10 18:46:00,85.2,76.4,29.87,West,261,0.0,4.0,75,0.00,,---,0.00,VWS V14.01,2013-07-10 22:46:00,
2013-07-10 18:51:00,85.1,76.3,29.87,SW,236,0.0,4.0,75,0.00,,---,0.00,VWS V14.01,2013-07-10 22:51:00,
2013-07-10 18:56:00,85.0,76.6,29.86,WSW,247,0.0,4.0,76,0.00,,---,0.00,VWS V14.01,2013-07-10 22:56:00,
2013-07-10 19:00:00,84.7,76.7,29.87,WSW,247,0.0,4.0,77,0.00,,---,0.00,VWS V14.01,2013-07-10 23:00:00,
2013-07-10 19:01:00,84.7,76.3,29.87,WSW,247,0.0,0.0,76,0.00,,---,0.00,VWS V14.01,2013-07-10 23:01:00,
2013-07-10 19:06:00,84.5,76.5,29.87,WSW,247,0.0,1.0,77,0.00,,---,0.00,VWS V14.01,2013-07-10 23:06:00,
2013-07-10 19:11:00,84.5,76.1,29.87,West,267,0.0,2.0,76,0.00,,---,0.00,VWS V14.01,2013-07-10 23:11:00,
2013-07-10 19:16:00,84.4,76.4,29.87,West,268,0.0,2.0,77,0.00,,---,0.00,VWS V14.01,2013-07-10 23:16:00,
2013-07-10 19:21:00,84.4,76.4,29.87,WNW,286,0.0,2.0,77,0.00,,---,0.00,VWS V14.01,2013-07-10 23:21:00,
2013-07-10 19:26:00,84.3,76.3,29.86,WNW,286,0.0,2.0,77,0.00,,---,0.00,VWS V14.01,2013-07-10 23:26:00,
2013-07-10 19:30:00,85.5,76.3,29.85,West,274,0.0,3.0,74,0.00,,---,0.00,VWS V14.01,2013-07-10 23:30:00,
2013-07-10 19:31:00,84.3,76.3,29.86,WNW,286,0.0,0.0,77,0.00,,---,0.00,VWS V14.01,2013-07-10 23:31:00,
2013-07-10 19:36:00,84.3,76.3,29.86,West,259,1.0,3.0,77,0.00,,---,0.00,VWS V14.01,2013-07-10 23:36:00,
2013-07-10 19:41:00,84.3,76.3,29.86,West,259,0.0,3.0,77,0.00,,---,0.00,VWS V14.01,2013-07-10 23:41:00,
2013-07-10 19:46:00,84.0,76.4,29.87,West,259,0.0,3.0,78,0.00,,---,0.00,VWS V14.01,2013-07-10 23:46:00,
2013-07-10 19:51:00,83.9,76.3,29.87,West,259,0.0,3.0,78,0.00,,---,0.00,VWS V14.01,2013-07-10 23:51:00,
2013-07-10 19:56:00,83.8,76.6,29.87,West,259,0.0,3.0,79,0.00,,---,0.00,VWS V14.01,2013-07-10 23:56:00,
2013-07-10 20:00:00,83.4,77.0,29.87,West,259,0.0,3.0,81,0.00,,---,0.00,VWS V14.01,2013-07-11 00:00:00,
2013-07-10 20:01:00,83.3,77.2,29.87,West,259,0.0,0.0,82,0.00,,---,0.00,VWS V14.01,2013-07-11 00:01:00,
2013-07-10 20:06:00,82.8,76.8,29.88,South,181,1.0,1.0,82,0.00,,---,0.00,VWS V14.01,2013-07-11 00:06:00,
2013-07-10 20:11:00,82.7,76.7,29.88,East,84,1.0,1.0,82,0.00,,---,0.00,VWS V14.01,2013-07-11 00:11:00,
2013-07-10 20:16:00,82.8,76.8,29.89,WNW,300,0.0,2.0,82,0.00,,---,0.00,VWS V14.01,2013-07-11 00:16:00,
2013-07-10 20:21:00,82.6,74.7,29.89,SE,134,2.0,7.0,77,0.00,,---,0.00,VWS V14.01,2013-07-11 00:21:00,
2013-07-10 20:26:00,82.3,73.6,29.89,WSW,247,4.0,8.0,75,0.00,,---,0.00,VWS V14.01,2013-07-11 00:26:00,
2013-07-10 20:30:00,84.3,76.3,29.86,WNW,286,0.0,2.0,77,0.00,,---,0.00,VWS V14.01,2013-07-11 00:30:00,
2013-07-10 20:31:00,82.0,72.9,29.89,WSW,251,2.0,3.0,74,0.00,,---,0.00,VWS V14.01,2013-07-11 00:31:00,
2013-07-10 20:36:00,81.6,72.1,29.90,WSW,238,2.0,7.0,73,0.00,,---,0.00,VWS V14.01,2013-07-11 00:36:00,
2013-07-10 20:41:00,81.0,71.5,29.90,WSW,250,2.0,7.0,73,0.00,,---,0.00,VWS V14.01,2013-07-11 00:41:00,
2013-07-10 20:46:00,80.5,71.8,29.91,WSW,241,0.0,7.0,75,0.00,,---,0.00,VWS V14.01,2013-07-11 00:46:00,
2013-07-10 20:51:00,80.0,71.8,29.92,WSW,238,0.0,8.0,76,0.00,,---,0.00,VWS V14.01,2013-07-11 00:51:00,
2013-07-10 20:56:00,79.4,71.6,29.92,SW,235,0.0,8.0,77,0.00,,---,0.00,VWS V14.01,2013-07-11 00:56:00,
2013-07-10 21:00:00,83.4,77.0,29.87,West,259,0.0,3.0,81,0.00,,---,0.00,VWS V14.01,2013-07-11 01:00:00,
2013-07-10 21:01:00,79.0,71.9,29.92,NNE,25,0.0,2.0,79,0.00,,---,0.00,VWS V14.01,2013-07-11 01:01:00,
2013-07-10 21:06:00,78.5,72.2,29.91,West,268,1.0,2.0,81,0.00,,---,0.00,VWS V14.01,2013-07-11 01:06:00,
2013-07-10 21:11:00,77.7,72.1,29.92,WSW,241,0.0,4.0,83,0.00,,---,0.00,VWS V14.01,2013-07-11 01:11:00,
2013-07-10 21:16:00,77.0,72.2,29.92,WSW,257,2.0,5.0,85,0.01,,---,0.01,VWS V14.01,2013-07-11 01:16:00,
2013-07-10 21:21:00,76.4,72.2,29.92,West,263,0.0,5.0,87,0.01,,---,0.01,VWS V14.01,2013-07-11 01:21:00,
2013-07-10 21:26:00,75.9,72.4,29.91,West,263,0.0,5.0,89,0.02,,---,0.02,VWS V14.01,2013-07-11 01:26:00,
2013-07-10 21:30:00,75.4,72.3,29.90,West,263,0.0,5.0,90,0.03,,---,0.03,VWS V14.01,2013-07-11 01:30:00,
2013-07-10 21:31:00,75.3,72.2,29.90,West,263,1.0,1.0,90,0.03,,---,0.03,VWS V14.01,2013-07-11 01:31:00,
2013-07-10 21:36:00,75.0,72.2,29.90,West,263,0.0,2.0,91,0.03,,---,0.03,VWS V14.01,2013-07-11 01:36:00,
2013-07-10 21:41:00,74.8,72.3,29.90,West,262,1.0,2.0,92,0.03,,---,0.03,VWS V14.01,2013-07-11 01:41:00,
2013-07-10 21:46:00,74.7,72.2,29.90,West,262,0.0,2.0,92,0.03,,---,0.03,VWS V14.01,2013-07-11 01:46:00,
2013-07-10 21:51:00,74.6,72.4,29.89,West,262,0.0,2.0,93,0.03,,---,0.03,VWS V14.01,2013-07-11 01:51:00,
2013-07-10 21:56:00,74.4,72.2,29.89,West,262,0.0,2.0,93,0.03,,---,0.03,VWS V14.01,2013-07-11 01:56:00,
2013-07-10 22:00:00,74.2,72.1,29.89,West,262,0.0,2.0,93,0.03,,---,0.03,VWS V14.01,2013-07-11 02:00:00,
2013-07-10 22:01:00,74.2,72.1,29.89,West,262,0.0,0.0,93,0.03,,---,0.03,VWS V14.01,2013-07-11 02:01:00,
2013-07-10 22:06:00,74.2,72.4,29.89,West,262,0.0,1.0,94,0.03,,---,0.03,VWS V14.01,2013-07-11 02:06:00,
2013-07-10 22:11:00,74.2,72.4,29.89,West,262,0.0,1.0,94,0.03,,---,0.03,VWS V14.01,2013-07-11 02:11:00,
2013-07-10 22:16:00,74.2,72.4,29.88,West,262,0.0,1.0,94,0.03,,---,0.03,VWS V14.01,2013-07-11 02:16:00,
2013-07-10 22:21:00,74.1,72.3,29.89,West,262,0.0,2.0,94,0.03,,---,0.03,VWS V14.01,2013-07-11 02:21:00,
2013-07-10 22:26:00,74.1,72.3,29.88,West,262,0.0,2.0,94,0.03,,---,0.03,VWS V14.01,2013-07-11 02:26:00,
2013-07-10 22:30:00,74.1,72.3,29.88,West,262,0.0,2.0,94,0.03,,---,0.03,VWS V14.01,2013-07-11 02:30:00,
2013-07-10 22:31:00,74.1,72.3,29.88,West,262,0.0,1.0,94,0.00,,---,0.03,VWS V14.01,2013-07-11 02:31:00,
2013-07-10 22:36:00,74.1,72.3,29.88,West,262,0.0,1.0,94,0.00,,---,0.03,VWS V14.01,2013-07-11 02:36:00,
2013-07-10 22:41:00,74.1,72.3,29.87,West,262,0.0,1.0,94,0.00,,---,0.03,VWS V14.01,2013-07-11 02:41:00,
2013-07-10 22:46:00,74.0,72.2,29.87,West,262,0.0,1.0,94,0.00,,---,0.03,VWS V14.01,2013-07-11 02:46:00,
2013-07-10 22:51:00,73.9,72.1,29.87,West,262,0.0,1.0,94,0.00,,---,0.03,VWS V14.01,2013-07-11 02:51:00,
2013-07-10 22:56:00,73.9,72.1,29.88,West,262,0.0,2.0,94,0.00,,---,0.03,VWS V14.01,2013-07-11 02:56:00,
2013-07-10 23:00:00,73.8,72.0,29.88,West,262,0.0,2.0,94,0.00,,---,0.03,VWS V14.01,2013-07-11 03:00:00,
2013-07-10 23:01:00,73.8,72.0,29.88,West,262,0.0,0.0,94,0.00,,---,0.03,VWS V14.01,2013-07-11 03:01:00,
2013-07-10 23:06:00,73.8,72.0,29.88,West,262,0.0,1.0,94,0.00,,---,0.03,VWS V14.01,2013-07-11 03:06:00,
2013-07-10 23:11:00,73.7,71.9,29.88,West,262,1.0,1.0,94,0.00,,---,0.03,VWS V14.01,2013-07-11 03:11:00,
2013-07-10 23:16:00,73.7,71.9,29.87,West,262,0.0,2.0,94,0.00,,---,0.03,VWS V14.01,2013-07-11 03:16:00,
2013-07-10 23:21:00,73.7,71.9,29.88,West,263,0.0,3.0,94,0.00,,---,0.03,VWS V14.01,2013-07-11 03:21:00,
2013-07-10 23:26:00,73.8,72.0,29.88,West,262,0.0,4.0,94,0.00,,---,0.03,VWS V14.01,2013-07-11 03:26:00,
2013-07-10 23:30:00,74.1,72.3,29.88,West,262,0.0,2.0,94,0.03,,---,0.03,VWS V14.01,2013-07-11 03:30:00,
2013-07-10 23:31:00,73.8,72.0,29.87,West,263,0.0,1.0,94,0.00,,---,0.03,VWS V14.01,2013-07-11 03:31:00,
2013-07-10 23:36:00,73.7,71.9,29.87,WSW,255,0.0,3.0,94,0.00,,---,0.03,VWS V14.01,2013-07-11 03:36:00,
2013-07-10 23:41:00,73.7,71.9,29.87,WSW,258,0.0,3.0,94,0.00,,---,0.03,VWS V14.01,2013-07-11 03:41:00,
2013-07-10 23:46:00,73.8,71.7,29.87,WSW,258,0.0,3.0,93,0.00,,---,0.03,VWS V14.01,2013-07-11 03:46:00,
2013-07-10 23:51:00,73.7,71.6,29.87,WSW,258,0.0,3.0,93,0.00,,---,0.03,VWS V14.01,2013-07-11 03:51:00,
2013-07-10 23:56:00,73.7,71.6,29.87,WSW,250,1.0,3.0,93,0.00,,---,0.03,VWS V14.01,2013-07-11 03:56:00,